Main page
METAR-TAF:

METAR-TAF

Airports :

Southampton Airport

Southampton, England

latitude: 50-54N, longitude: 001-24W, elevation: 9 m

Current weather observation

The report was made 13 hours and 41 minutes ago, at 18:50 UTC
Wind 7 kt from the West/Northwest, varying between West/Southwest and North
Temperature 18°C
Humidity 49%
Pressure 1021 hPa
Visibility 10 km or more
no clouds below 1500 m and no cumulonimbus

METAR: EGHI 101850Z 30007KT 250V350 CAVOK 18/07 Q1021

Time: 09:31 (08:31 UTC)

Forecast

The report was made 18 hours and 34 minutes ago, at 13:57 UTC
Forecast valid from 10 at 15 UTC to 10 at 19 UTC
Wind 9 kt from the Northwest
Visibility 10 km or more
Scattered clouds at a height of 4000 ft

TAF: EGHI 101357Z 1015/1019 32009KT 9999 SCT040

Weather observations and forecasts of more than 4000 airports (METAR and TAF reports).

The available stations are represented by yellow and red dots on the map.

Hover mouse over dot to see the name of the station.

Then click to see weather observations and forecasts.

To change the map : click on the green buttons with a black cross to zoom in, on the green button with a dash to zoom out, or on the green arrows for adjacent maps.


METAR-TAF: